Time;durP1;ratioP1;P1;durP2;ratioP2;P2;SDS_P1;SDS_P2;PMS_P1;PMS_P2;Temp;Humidity;BMP_temperature;BMP_pressure;BME280_temperature;BME280_humidity;BME280_pressure;Samples;Min_cycle;Max_cycle;Signal;HPM_P1;HPM_P2
2022/04/01 00:00:27;;;;;;;10.30;9.70;;;;;;;0.87;100.00;99672.47;5116720;28;20231;-70
2022/04/01 00:02:53;;;;;;;15.60;9.93;;;;;;;0.78;100.00;99674.31;5116164;28;20182;-70
2022/04/01 00:05:20;;;;;;;10.13;9.47;;;;;;;0.83;100.00;99680.22;5115777;28;20261;-69
2022/04/01 00:07:46;;;;;;;11.13;9.87;;;;;;;0.72;100.00;99671.88;5116070;28;20215;-71
2022/04/01 00:10:13;;;;;;;9.37;8.63;;;;;;;0.75;100.00;99674.38;5115687;28;20212;-70
2022/04/01 00:12:41;;;;;;;9.10;8.60;;;;;;;0.83;100.00;99669.06;5115969;28;20185;-70
2022/04/01 00:15:09;;;;;;;10.33;9.77;;;;;;;0.91;100.00;99674.09;5115841;28;20213;-70
2022/04/01 00:17:35;;;;;;;12.10;9.17;;;;;;;1.00;100.00;99671.31;5115923;28;20688;-70
2022/04/01 00:20:03;;;;;;;9.83;9.10;;;;;;;0.77;100.00;99685.50;5116191;28;20215;-70
2022/04/01 00:22:30;;;;;;;10.50;9.73;;;;;;;0.79;100.00;99681.19;5115820;28;20189;-70
2022/04/01 00:24:58;;;;;;;11.17;8.50;;;;;;;0.76;100.00;99682.94;5115817;28;20221;-70
2022/04/01 00:27:25;;;;;;;9.60;8.87;;;;;;;0.73;100.00;99691.59;5115818;28;20189;-70
2022/04/01 00:29:51;;;;;;;9.43;8.93;;;;;;;0.87;100.00;99695.66;5115664;28;20201;-70
2022/04/01 00:32:18;;;;;;;10.33;9.73;;;;;;;0.77;100.00;99693.22;5115921;28;20655;-70
2022/04/01 00:34:45;;;;;;;10.50;9.77;;;;;;;0.86;100.00;99689.66;5115374;28;20549;-70
2022/04/01 00:37:12;;;;;;;10.17;9.17;;;;;;;0.82;100.00;99701.72;5115616;28;20189;-70
2022/04/01 00:39:38;;;;;;;9.37;8.83;;;;;;;0.81;100.00;99700.03;5115267;28;20712;-69
2022/04/01 00:42:05;;;;;;;10.27;9.60;;;;;;;0.87;100.00;99706.81;5115803;28;20230;-69
2022/04/01 00:44:35;;;;;;;10.30;9.40;;;;;;;0.90;100.00;99699.00;5115464;28;20280;-69
2022/04/01 00:47:04;;;;;;;10.13;9.60;;;;;;;0.81;100.00;99697.44;5115162;28;20198;-70
2022/04/01 00:49:32;;;;;;;9.53;8.77;;;;;;;0.79;100.00;99706.09;5115212;28;20197;-70
2022/04/01 00:52:01;;;;;;;10.87;10.17;;;;;;;0.68;100.00;99703.69;5097034;28;20189;-70
2022/04/01 00:54:28;;;;;;;9.70;9.20;;;;;;;0.83;100.00;99716.28;5097964;28;20598;-70
2022/04/01 00:56:55;;;;;;;9.30;8.63;;;;;;;0.79;100.00;99709.53;5114890;28;20246;-69
2022/04/01 00:59:24;;;;;;;9.87;8.93;;;;;;;0.79;100.00;99717.25;5115386;28;20655;-70
2022/04/01 01:01:51;;;;;;;9.37;8.87;;;;;;;0.79;100.00;99724.13;5115085;28;20237;-70
2022/04/01 01:04:19;;;;;;;9.03;8.63;;;;;;;0.79;100.00;99717.25;5114945;28;20712;-70
2022/04/01 01:06:49;;;;;;;9.30;8.47;;;;;;;0.70;100.00;99719.13;5115361;27;20189;-70
2022/04/01 01:09:16;;;;;;;7.83;7.53;;;;;;;0.75;100.00;99718.16;5130756;27;20205;-70
2022/04/01 01:11:45;;;;;;;9.30;8.67;;;;;;;0.74;100.00;99721.63;5131358;27;20185;-70
2022/04/01 01:14:14;;;;;;;9.37;8.60;;;;;;;0.68;100.00;99718.31;5116886;27;20214;-69
2022/04/01 01:16:44;;;;;;;8.70;8.07;;;;;;;0.75;100.00;99718.16;5133555;27;20650;-69
2022/04/01 01:19:13;;;;;;;9.13;8.63;;;;;;;0.78;100.00;99725.81;5114670;28;20249;-69
2022/04/01 01:21:40;;;;;;;10.90;8.53;;;;;;;0.74;100.00;99726.78;5096323;28;20668;-70
2022/04/01 01:24:11;;;;;;;8.33;7.97;;;;;;;0.65;100.00;99726.94;5096268;28;20222;-70
2022/04/01 01:26:40;;;;;;;8.33;7.77;;;;;;;0.74;100.00;99728.50;5119296;27;20197;-69
2022/04/01 01:29:09;;;;;;;9.70;8.90;;;;;;;0.80;100.00;99726.66;5114824;28;20260;-69
2022/04/01 01:31:36;;;;;;;8.27;7.77;;;;;;;0.70;100.00;99730.28;5114785;28;20215;-70
2022/04/01 01:34:04;;;;;;;8.17;7.50;;;;;;;0.79;100.00;99730.13;5130318;27;20346;-70
2022/04/01 01:36:31;;;;;;;7.77;7.37;;;;;;;0.78;100.00;99715.53;5130335;27;20198;-70
2022/04/01 01:38:58;;;;;;;6.97;6.73;;;;;;;0.71;100.00;99721.66;5118172;27;20179;-69
2022/04/01 01:41:25;;;;;;;7.23;6.73;;;;;;;0.67;100.00;99720.03;5124317;27;20204;-69
2022/04/01 01:43:54;;;;;;;7.03;6.93;;;;;;;0.61;100.00;99730.44;5114212;28;20205;-70
2022/04/01 01:46:20;;;;;;;7.90;7.20;;;;;;;0.60;100.00;99728.72;5130153;27;20193;-70
2022/04/01 01:48:47;;;;;;;6.13;6.03;;;;;;;0.63;100.00;99738.13;5095997;28;20190;-70
2022/04/01 01:56:46;;;;;;;5.80;5.67;;;;;;;0.62;100.00;99732.13;5122889;27;20200;-70
2022/04/01 01:59:12;;;;;;;6.03;5.83;;;;;;;0.65;100.00;99738.97;5129869;27;20549;-70
2022/04/01 02:01:40;;;;;;;7.30;7.00;;;;;;;0.56;100.00;99727.06;5129911;27;20669;-70
2022/04/01 02:04:07;;;;;;;7.23;6.83;;;;;;;0.49;100.00;99726.31;5114284;28;20216;-69
2022/04/01 02:06:33;;;;;;;6.93;6.63;;;;;;;0.53;100.00;99735.72;5095709;28;20712;-70
2022/04/01 02:09:00;;;;;;;5.67;5.53;;;;;;;0.47;100.00;99730.66;5094894;28;20189;-70
2022/04/01 02:11:27;;;;;;;6.17;6.03;;;;;;;0.60;100.00;99718.44;5120620;27;20184;-70
2022/04/01 02:13:57;;;;;;;5.80;5.70;;;;;;;0.52;100.00;99728.03;5115864;27;20208;-70
2022/04/01 02:16:24;;;;;;;6.37;6.07;;;;;;;0.60;100.00;99727.88;5115876;27;20269;-70
2022/04/01 02:18:50;;;;;;;6.03;5.93;;;;;;;0.51;100.00;99734.06;5115784;27;20184;-70
2022/04/01 02:21:17;;;;;;;6.20;6.03;;;;;;;0.51;100.00;99724.59;5115057;28;20188;-69
2022/04/01 02:23:48;;;;;;;5.87;5.77;;;;;;;0.52;100.00;99735.75;5134242;28;20205;-69
2022/04/01 02:26:19;;;;;;;6.30;6.00;;;;;;;0.59;100.00;99729.63;5112037;28;20187;-69
2022/04/01 02:28:45;;;;;;;7.40;7.10;;;;;;;0.42;100.00;99734.19;5095524;28;20185;-69
2022/04/01 02:31:12;;;;;;;6.43;6.33;;;;;;;0.43;100.00;99731.59;5129446;28;20204;-69
2022/04/01 02:33:59;;;;;;;6.20;5.90;;;;;;;0.58;100.00;99735.66;5113437;28;20261;-69
2022/04/01 02:36:26;;;;;;;5.90;5.70;;;;;;;0.53;100.00;99727.13;5095320;28;20194;-69
2022/04/01 02:38:53;;;;;;;6.17;5.97;;;;;;;0.61;100.00;99733.00;5129467;28;20193;-69
2022/04/01 02:41:21;;;;;;;6.17;5.97;;;;;;;0.61;100.00;99730.44;5131566;28;20198;-69
2022/04/01 02:43:48;;;;;;;6.73;6.53;;;;;;;0.58;100.00;99733.06;5115261;28;20236;-69
2022/04/01 02:46:15;;;;;;;6.13;6.03;;;;;;;0.63;100.00;99733.81;5115653;28;20663;-69
2022/04/01 02:48:54;;;;;;;6.47;6.37;;;;;;;0.58;100.00;99738.22;5115579;28;20705;-69
2022/04/01 02:51:36;;;;;;;6.80;6.70;;;;;;;0.52;100.00;99738.31;5111966;28;20173;-69
2022/04/01 02:54:14;;;;;;;6.60;6.40;;;;;;;0.50;100.00;99742.63;5105796;28;20471;-70
2022/04/01 02:56:42;;;;;;;5.93;5.83;;;;;;;0.52;100.00;99738.31;5111770;28;20197;-69
2022/04/01 02:59:09;;;;;;;6.00;5.80;;;;;;;0.55;100.00;99741.69;5129213;28;20655;-69
2022/04/01 03:01:38;;;;;;;6.33;5.80;;;;;;;0.53;100.00;99747.75;5129217;28;20434;-69
2022/04/01 03:04:09;;;;;;;6.00;5.90;;;;;;;0.41;100.00;99746.19;5124609;28;20564;-69
2022/04/01 03:06:45;;;;;;;6.27;6.13;;;;;;;0.44;100.00;99751.31;5095165;28;20185;-69
2022/04/01 03:09:12;;;;;;;5.87;5.67;;;;;;;0.56;100.00;99747.69;5095049;28;20667;-69
2022/04/01 03:11:45;;;;;;;6.37;6.27;;;;;;;0.42;100.00;99755.63;5097832;28;20189;-69
2022/04/01 03:14:29;;;;;;;5.97;5.87;;;;;;;0.39;100.00;99765.13;5115608;28;20299;-69
2022/04/01 03:17:14;;;;;;;5.50;5.30;;;;;;;0.39;100.00;99767.72;5134122;28;20536;-70
2022/04/01 03:19:41;;;;;;;6.10;5.90;;;;;;;0.42;100.00;99771.06;5117073;27;20684;-70
2022/04/01 03:22:08;;;;;;;8.73;6.07;;;;;;;0.47;100.00;99765.84;5113651;28;20205;-70
2022/04/01 03:24:35;;;;;;;5.73;5.40;;;;;;;0.53;100.00;99758.03;5098648;28;20633;-70
2022/04/01 03:27:02;;;;;;;5.97;5.77;;;;;;;0.46;100.00;99772.75;5119730;27;20540;-69
2022/04/01 03:29:31;;;;;;;5.70;5.60;;;;;;;0.54;100.00;99781.19;5118893;27;20192;-69
2022/04/01 03:31:58;;;;;;;6.07;5.97;;;;;;;0.52;100.00;99782.94;5118998;27;20188;-69
2022/04/01 03:34:26;;;;;;;5.20;4.90;;;;;;;0.44;100.00;99784.78;5136514;27;20209;-69
2022/04/01 03:36:54;;;;;;;5.53;5.43;;;;;;;0.49;100.00;99782.13;5119124;27;20241;-69
2022/04/01 03:39:24;;;;;;;5.53;5.33;;;;;;;0.38;100.00;99794.31;5118855;27;20189;-70
2022/04/01 03:41:57;;;;;;;6.00;5.83;;;;;;;0.43;100.00;99803.69;5118296;27;20195;-70
2022/04/01 03:44:25;;;;;;;5.93;5.77;;;;;;;0.38;100.00;99804.63;5098643;28;20212;-70
2022/04/01 03:47:52;;;;;;;5.50;5.40;;;;;;;0.45;100.00;99812.25;5104468;28;20203;-70
2022/04/01 03:50:32;;;;;;;5.37;5.27;;;;;;;0.48;100.00;99811.34;5098011;28;20209;-70
2022/04/01 03:53:08;;;;;;;5.30;5.20;;;;;;;0.50;100.00;99815.59;5126502;27;20181;-69
2022/04/01 03:55:41;;;;;;;5.60;5.50;;;;;;;0.51;100.00;99821.59;5097813;28;20698;-69
2022/04/01 03:58:35;;;;;;;4.67;4.57;;;;;;;0.54;100.00;99822.38;5128031;27;20203;-69
2022/04/01 04:01:24;;;;;;;5.30;5.20;;;;;;;0.35;100.00;99810.66;5136580;27;20191;-69
2022/04/01 04:03:51;;;;;;;5.23;5.13;;;;;;;0.41;100.00;99815.72;5118239;27;20277;-69
2022/04/01 04:06:19;;;;;;;5.53;5.43;;;;;;;0.44;100.00;99820.00;5099216;28;20200;-69
2022/04/01 04:08:48;;;;;;;5.37;5.27;;;;;;;0.31;100.00;99839.06;5098086;28;20199;-69
2022/04/01 04:11:17;;;;;;;5.47;5.00;;;;;;;0.31;100.00;99826.19;5131915;27;20624;-69
2022/04/01 04:13:52;;;;;;;5.77;5.67;;;;;;;0.24;100.00;99839.13;5122655;27;20508;-69
2022/04/01 04:16:34;;;;;;;5.23;5.07;;;;;;;0.35;100.00;99840.69;5097590;28;20193;-69
2022/04/01 04:19:09;;;;;;;6.10;5.90;;;;;;;0.32;100.00;99851.91;5098170;28;20256;-69
2022/04/01 04:22:00;;;;;;;4.97;4.97;;;;;;;0.34;100.00;99829.56;5097604;28;20715;-70
2022/04/01 04:25:00;;;;;;;5.47;5.20;;;;;;;0.40;100.00;99841.50;5115258;27;20212;-70
2022/04/01 04:27:29;;;;;;;5.50;5.40;;;;;;;0.39;100.00;99839.78;5117930;27;20429;-70
2022/04/01 04:30:08;;;;;;;5.90;5.73;;;;;;;0.45;100.00;99843.13;5097323;28;20193;-70
2022/04/01 04:32:56;;;;;;;5.50;5.40;;;;;;;0.43;100.00;99846.59;5131438;27;20202;-70
2022/04/01 04:35:28;;;;;;;5.40;5.30;;;;;;;0.48;100.00;99855.09;5124159;27;20208;-69
2022/04/01 04:37:57;;;;;;;5.80;5.70;;;;;;;0.49;100.00;99859.38;5097207;28;20193;-70
2022/04/01 04:40:25;;;;;;;6.73;6.53;;;;;;;0.41;100.00;99861.22;5097107;28;20199;-70
2022/04/01 04:43:05;;;;;;;5.90;5.73;;;;;;;0.37;100.00;99867.28;5099539;27;20193;-69
2022/04/01 04:45:32;;;;;;;5.73;5.63;;;;;;;0.31;100.00;99855.34;5117440;27;20211;-70
2022/04/01 04:48:01;;;;;;;6.77;6.37;;;;;;;0.27;100.00;99867.41;5118269;27;20224;-70
2022/04/01 04:50:28;;;;;;;6.43;6.10;;;;;;;0.37;100.00;99864.72;5117886;27;20216;-70
2022/04/01 04:52:56;;;;;;;6.60;6.43;;;;;;;0.27;99.92;99877.69;5116430;27;20662;-70
2022/04/01 04:55:23;;;;;;;5.47;5.30;;;;;;;0.26;99.47;99873.41;5130922;27;20228;-69
2022/04/01 04:57:58;;;;;;;6.57;6.33;;;;;;;0.32;100.00;99879.38;5096905;28;20269;-70
2022/04/01 05:00:25;;;;;;;6.27;6.10;;;;;;;0.28;100.00;99881.97;5117248;27;20190;-70
2022/04/01 05:03:23;;;;;;;5.70;5.50;;;;;;;0.30;100.00;99884.53;5117679;27;20543;-70
2022/04/01 05:05:56;;;;;;;5.70;5.40;;;;;;;0.31;99.95;99891.41;5101719;28;20235;-70
2022/04/01 05:08:50;;;;;;;5.40;5.30;;;;;;;0.38;99.74;99893.00;5114835;28;20195;-70
2022/04/01 05:12:11;;;;;;;5.90;5.70;;;;;;;0.34;100.00;99898.22;5096332;28;20712;-69
2022/04/01 05:15:19;;;;;;;5.97;5.87;;;;;;;0.32;100.00;99895.66;5116576;27;20312;-69
2022/04/01 05:18:06;;;;;;;6.93;6.47;;;;;;;0.32;100.00;99903.38;5115791;28;20485;-69
2022/04/01 05:20:38;;;;;;;6.23;6.07;;;;;;;0.43;99.60;99900.66;5096357;28;20185;-69
2022/04/01 05:23:15;;;;;;;6.20;5.93;;;;;;;0.28;99.07;99910.28;5096371;28;20235;-70
2022/04/01 05:26:04;;;;;;;6.00;5.80;;;;;;;0.21;99.72;99911.22;5096822;28;20269;-69
2022/04/01 05:28:57;;;;;;;6.83;6.53;;;;;;;0.19;100.00;99919.84;5117793;27;20264;-69
2022/04/01 05:31:45;;;;;;;5.83;5.63;;;;;;;0.28;99.70;99923.16;5116467;27;20709;-69
2022/04/01 05:34:19;;;;;;;6.17;5.93;;;;;;;0.30;99.71;99927.47;5117293;27;20513;-69
2022/04/01 05:36:53;;;;;;;6.40;6.17;;;;;;;0.31;99.45;99930.00;5106420;28;20189;-69
2022/04/01 05:39:20;;;;;;;6.07;5.83;;;;;;;0.36;99.20;99937.66;5096121;28;20193;-69
2022/04/01 05:41:54;;;;;;;5.70;5.50;;;;;;;0.31;99.06;99942.03;5130127;27;20173;-69
2022/04/01 05:44:22;;;;;;;5.83;5.63;;;;;;;0.20;99.49;99950.72;5101627;27;20491;-69
2022/04/01 05:46:51;;;;;;;5.97;5.77;;;;;;;0.35;99.59;99953.97;5116285;27;20194;-69
2022/04/01 05:49:21;;;;;;;6.40;6.10;;;;;;;0.22;98.59;99956.72;5116230;27;20226;-69
2022/04/01 05:51:49;;;;;;;6.60;6.00;;;;;;;0.32;98.65;99957.44;5116147;27;20551;-69
2022/04/01 05:54:19;;;;;;;8.93;6.97;;;;;;;0.21;98.51;99955.00;5110995;28;20288;-69
2022/04/01 05:56:47;;;;;;;5.53;5.40;;;;;;;0.19;99.00;99955.88;5129721;27;20434;-69
2022/04/01 05:59:16;;;;;;;6.03;5.83;;;;;;;0.21;98.67;99967.84;5132755;27;20185;-69
2022/04/01 06:01:52;;;;;;;6.83;6.73;;;;;;;0.39;98.24;99966.81;5116079;27;20284;-69
2022/04/01 06:04:34;;;;;;;5.47;5.37;;;;;;;0.31;98.71;99975.50;5116450;27;20467;-69
2022/04/01 06:07:10;;;;;;;6.53;6.20;;;;;;;0.31;98.87;99981.50;5102715;28;20189;-69
2022/04/01 06:09:53;;;;;;;5.53;5.43;;;;;;;0.30;98.45;99979.78;5095649;28;20429;-69
2022/04/01 06:13:04;;;;;;;5.27;5.17;;;;;;;0.22;98.19;99971.31;5113619;28;20448;-69
2022/04/01 06:16:14;;;;;;;5.83;5.73;;;;;;;0.22;98.38;99979.88;5128887;27;20424;-69
2022/04/01 06:19:21;;;;;;;5.23;5.13;;;;;;;0.23;98.34;99986.72;5123460;27;20429;-69
2022/04/01 06:22:11;;;;;;;5.10;5.00;;;;;;;0.20;98.86;99984.19;5116197;27;20665;-69
2022/04/01 06:25:13;;;;;;;6.37;6.07;;;;;;;0.19;98.25;99992.78;5115454;28;20452;-69
2022/04/01 06:27:46;;;;;;;5.93;5.73;;;;;;;0.07;98.98;99995.47;5115803;28;20646;-69
2022/04/01 06:30:17;;;;;;;5.70;5.60;;;;;;;0.12;98.73;99996.28;5107697;28;20193;-69
2022/04/01 06:32:52;;;;;;;6.83;6.63;;;;;;;0.20;98.55;100001.34;5129723;28;20291;-69
2022/04/01 06:35:38;;;;;;;5.07;5.00;;;;;;;0.25;98.29;99999.59;5095460;28;20205;-69
2022/04/01 06:38:24;;;;;;;5.63;5.53;;;;;;;0.33;98.34;100014.94;5128636;28;20437;-69
2022/04/01 06:41:06;;;;;;;6.03;5.73;;;;;;;0.29;98.02;100011.56;5105074;28;20176;-69
2022/04/01 06:43:43;;;;;;;6.03;5.83;;;;;;;0.25;98.19;100015.03;5129680;28;20578;-69
2022/04/01 06:46:48;;;;;;;6.07;4.83;;;;;;;0.26;98.60;100020.16;5113291;28;20439;-69
2022/04/01 06:49:18;;;;;;;6.77;6.53;;;;;;;0.27;98.51;100028.72;5095590;28;20204;-69
2022/04/01 06:52:04;;;;;;;5.73;5.57;;;;;;;0.32;97.33;100024.38;5113500;28;20204;-69
2022/04/01 06:54:49;;;;;;;5.90;5.80;;;;;;;0.17;97.94;100032.28;5115549;28;20709;-69
2022/04/01 06:57:39;;;;;;;5.63;5.50;;;;;;;0.27;97.82;100033.88;5117309;28;20224;-69
2022/04/01 07:00:18;;;;;;;5.60;5.43;;;;;;;0.31;97.98;100042.44;5133368;27;20185;-69
2022/04/01 07:02:45;;;;;;;6.17;6.03;;;;;;;0.22;97.94;100039.09;5117722;28;20181;-69
2022/04/01 07:05:12;;;;;;;5.60;5.30;;;;;;;0.19;97.86;100041.66;5117582;28;20205;-69
2022/04/01 07:07:43;;;;;;;6.07;5.90;;;;;;;0.17;98.32;100043.41;5117546;28;20234;-69
2022/04/01 07:10:14;;;;;;;5.70;5.60;;;;;;;0.26;97.33;100052.75;5117854;28;20230;-69
2022/04/01 07:12:40;;;;;;;5.27;5.07;;;;;;;0.24;97.46;100042.50;5117530;28;20173;-69
2022/04/01 07:15:08;;;;;;;6.53;6.43;;;;;;;0.19;97.46;100061.41;5118000;28;20266;-70
2022/04/01 07:17:38;;;;;;;6.33;5.97;;;;;;;0.28;97.59;100059.59;5117396;28;20444;-70
2022/04/01 07:20:10;;;;;;;5.67;5.47;;;;;;;0.25;96.90;100061.34;5117369;28;20821;-70
2022/04/01 07:22:47;;;;;;;5.77;5.67;;;;;;;0.21;97.76;100059.66;5117331;28;20175;-70
2022/04/01 07:25:14;;;;;;;5.97;5.77;;;;;;;0.23;97.12;100063.97;5116928;28;20205;-69
2022/04/01 07:27:40;;;;;;;6.27;5.77;;;;;;;0.34;97.31;100071.56;5117215;28;20193;-70
2022/04/01 07:30:08;;;;;;;6.37;6.10;;;;;;;0.26;97.35;100063.91;5117186;28;20192;-70
2022/04/01 07:32:36;;;;;;;5.37;5.27;;;;;;;0.44;97.21;100075.75;5117310;28;20536;-70
2022/04/01 07:35:14;;;;;;;5.37;5.27;;;;;;;0.31;96.02;100078.47;5116687;28;20205;-70
2022/04/01 07:37:42;;;;;;;5.33;5.23;;;;;;;0.35;96.68;100078.41;5117067;28;20202;-70
2022/04/01 07:40:18;;;;;;;6.00;5.63;;;;;;;0.38;96.30;100087.84;5116645;28;20651;-70
2022/04/01 07:42:45;;;;;;;5.00;4.83;;;;;;;0.35;95.97;100080.97;5116940;28;20475;-70
2022/04/01 07:45:12;;;;;;;5.70;5.47;;;;;;;0.36;96.40;100081.84;5116783;28;20938;-70
2022/04/01 07:47:38;;;;;;;5.87;5.63;;;;;;;0.40;96.00;100086.09;5116623;28;20177;-70
2022/04/01 07:50:05;;;;;;;4.90;4.80;;;;;;;0.33;96.03;100090.44;5116526;28;20429;-70
2022/04/01 07:52:33;;;;;;;5.20;5.10;;;;;;;0.40;96.26;100088.66;5116707;28;20659;-69
2022/04/01 07:55:00;;;;;;;6.47;5.97;;;;;;;0.42;96.13;100089.50;5116180;28;20959;-69
2022/04/01 07:57:26;;;;;;;4.90;4.83;;;;;;;0.45;96.65;100089.50;5116973;28;20456;-69
2022/04/01 07:59:53;;;;;;;5.30;5.20;;;;;;;0.47;95.73;100101.47;5116501;28;20497;-69
2022/04/01 08:02:19;;;;;;;5.57;5.47;;;;;;;0.48;96.03;100104.88;5116307;28;20189;-70
2022/04/01 08:04:46;;;;;;;5.60;5.10;;;;;;;0.50;95.03;100109.19;5116099;28;20241;-70
2022/04/01 08:07:14;;;;;;;6.20;5.50;;;;;;;0.54;95.28;100105.69;5115101;28;20576;-70
2022/04/01 08:09:41;;;;;;;6.03;5.67;;;;;;;0.39;95.37;100110.16;5116166;28;20230;-70
2022/04/01 08:12:10;;;;;;;5.43;5.30;;;;;;;0.49;94.96;100114.31;5116048;28;20209;-70
2022/04/01 08:14:37;;;;;;;5.87;5.57;;;;;;;0.46;95.84;100127.25;5116006;28;20212;-70
2022/04/01 08:17:05;;;;;;;5.43;5.33;;;;;;;0.51;94.77;100116.03;5116259;28;20603;-69
2022/04/01 08:19:33;;;;;;;5.33;5.13;;;;;;;0.47;94.65;100118.63;5116482;28;20192;-69
2022/04/01 08:21:59;;;;;;;5.87;5.67;;;;;;;0.54;94.60;100134.00;5115915;28;20647;-69
2022/04/01 08:24:26;;;;;;;6.17;5.80;;;;;;;0.52;94.08;100132.34;5115807;28;20201;-69
2022/04/01 08:26:52;;;;;;;6.33;6.03;;;;;;;0.47;94.95;100137.53;5115959;28;20189;-69
2022/04/01 08:29:20;;;;;;;5.77;5.57;;;;;;;0.51;94.11;100146.09;5115715;28;20231;-70
2022/04/01 08:31:46;;;;;;;5.63;5.53;;;;;;;0.45;93.97;100153.88;5115960;28;20246;-70
2022/04/01 08:34:13;;;;;;;6.17;5.90;;;;;;;0.43;94.25;100155.56;5097468;28;20205;-69
2022/04/01 08:36:39;;;;;;;5.60;5.50;;;;;;;0.36;94.66;100151.34;5115636;28;20247;-69
2022/04/01 08:39:06;;;;;;;4.90;4.80;;;;;;;0.53;93.73;100157.22;5115553;28;20185;-69
2022/04/01 08:41:32;;;;;;;5.70;5.60;;;;;;;0.43;94.05;100163.31;5116066;28;20238;-70
2022/04/01 08:43:59;;;;;;;5.93;5.73;;;;;;;0.49;93.74;100163.25;5115791;28;20205;-70
2022/04/01 08:46:25;;;;;;;5.73;5.53;;;;;;;0.59;93.69;100170.03;5115701;28;20189;-70
2022/04/01 08:48:52;;;;;;;5.57;5.37;;;;;;;0.54;93.53;100172.66;5115683;28;20191;-70
2022/04/01 08:51:19;;;;;;;5.97;5.87;;;;;;;0.63;93.75;100181.16;5115524;28;20536;-70
2022/04/01 08:53:46;;;;;;;5.40;5.30;;;;;;;0.78;93.06;100181.84;5115225;28;20209;-71
2022/04/01 08:56:14;;;;;;;4.47;4.37;;;;;;;0.65;93.08;100182.00;5115813;28;20201;-69
2022/04/01 08:58:41;;;;;;;5.77;5.37;;;;;;;0.70;92.75;100183.66;5115434;28;20190;-69
2022/04/01 09:01:07;;;;;;;5.60;5.50;;;;;;;0.55;92.85;100189.81;5115157;28;20207;-69
2022/04/01 09:03:35;;;;;;;4.90;4.70;;;;;;;0.59;92.56;100182.91;5115463;28;20189;-69
2022/04/01 09:06:04;;;;;;;6.73;6.13;;;;;;;0.63;92.96;100200.03;5115011;28;20185;-69
2022/04/01 09:08:35;;;;;;;5.17;5.07;;;;;;;0.68;93.25;100203.44;5115196;28;20242;-70
2022/04/01 09:11:04;;;;;;;6.93;6.30;;;;;;;0.57;92.40;100192.34;5115146;28;20581;-70
2022/04/01 09:13:45;;;;;;;5.37;5.23;;;;;;;0.53;91.98;100198.44;5114748;28;20189;-69
2022/04/01 09:16:27;;;;;;;6.13;5.93;;;;;;;0.72;91.98;100194.81;5115033;28;20177;-69
2022/04/01 09:18:56;;;;;;;6.33;6.23;;;;;;;0.73;91.38;100196.53;5114602;28;20651;-69
2022/04/01 09:21:42;;;;;;;6.87;6.67;;;;;;;0.75;91.65;100205.09;5114948;28;20207;-70
2022/04/01 09:24:10;;;;;;;6.20;6.10;;;;;;;0.71;90.44;100212.84;5114908;28;20238;-70
2022/04/01 09:26:39;;;;;;;5.33;5.13;;;;;;;0.71;90.81;100213.69;5114651;28;20183;-69
2022/04/01 09:29:10;;;;;;;5.80;5.60;;;;;;;0.65;91.42;100218.06;5114822;28;20189;-69
2022/04/01 09:31:39;;;;;;;5.80;5.50;;;;;;;0.78;90.55;100207.63;5114771;28;20224;-69
2022/04/01 09:34:11;;;;;;;6.00;5.80;;;;;;;0.77;91.10;100215.38;5114457;28;20205;-70
2022/04/01 09:36:39;;;;;;;6.07;5.80;;;;;;;0.78;90.71;100220.50;5115037;28;20173;-70
2022/04/01 09:39:09;;;;;;;6.30;6.00;;;;;;;0.86;91.22;100217.00;5114274;28;20254;-69
2022/04/01 09:41:52;;;;;;;5.97;5.77;;;;;;;1.14;90.71;100210.69;5114588;28;20187;-69
2022/04/01 09:44:36;;;;;;;4.80;4.70;;;;;;;0.92;89.18;100225.53;5114821;28;20210;-70
2022/04/01 09:47:05;;;;;;;6.13;5.83;;;;;;;0.92;89.68;100232.41;5114899;28;20214;-70
2022/04/01 09:49:42;;;;;;;6.33;6.03;;;;;;;1.06;89.40;100227.97;5114211;28;20187;-70
2022/04/01 09:52:11;;;;;;;6.00;5.77;;;;;;;0.98;89.60;100230.63;5114395;28;20204;-70
2022/04/01 09:54:52;;;;;;;5.73;5.63;;;;;;;0.90;90.33;100229.84;5114049;28;20255;-70
2022/04/01 09:57:21;;;;;;;6.10;5.63;;;;;;;0.93;88.41;100229.84;5114666;28;20194;-70
2022/04/01 09:59:49;;;;;;;6.23;6.07;;;;;;;0.89;90.17;100227.28;5114082;28;20189;-69
2022/04/01 10:02:16;;;;;;;6.07;5.87;;;;;;;1.00;89.72;100234.06;5113935;28;20182;-69
2022/04/01 10:04:42;;;;;;;6.13;5.63;;;;;;;1.03;90.14;100235.72;5114452;28;20611;-69
2022/04/01 10:07:09;;;;;;;7.00;6.53;;;;;;;1.03;89.44;100238.31;5113975;28;20533;-69
2022/04/01 10:09:40;;;;;;;5.73;5.63;;;;;;;0.97;89.92;100238.38;5113956;28;20184;-70
2022/04/01 10:12:29;;;;;;;5.47;5.37;;;;;;;0.91;89.98;100239.28;5113714;28;20300;-69
2022/04/01 10:14:59;;;;;;;5.80;5.70;;;;;;;1.04;90.98;100242.59;5113859;28;20262;-69
2022/04/01 10:17:46;;;;;;;5.80;5.57;;;;;;;1.11;90.16;100246.81;5114397;28;20256;-69
2022/04/01 10:20:13;;;;;;;5.77;5.40;;;;;;;0.93;89.64;100257.28;5113775;28;20181;-69
2022/04/01 10:22:41;;;;;;;6.93;6.33;;;;;;;0.91;89.55;100253.88;5113751;28;20658;-69
2022/04/01 10:25:29;;;;;;;6.50;6.30;;;;;;;0.86;89.83;100253.94;5113646;28;20218;-70
2022/04/01 10:27:58;;;;;;;5.97;5.80;;;;;;;0.92;90.92;100253.88;5113917;28;20181;-69
2022/04/01 10:30:26;;;;;;;7.37;6.60;;;;;;;0.96;90.72;100252.13;5113062;28;20328;-69
2022/04/01 10:32:52;;;;;;;5.70;5.40;;;;;;;0.86;90.82;100260.81;5114140;28;20200;-69
2022/04/01 10:35:23;;;;;;;5.67;5.57;;;;;;;0.85;90.57;100253.94;5113589;28;20218;-69
2022/04/01 10:38:15;;;;;;;6.07;5.97;;;;;;;0.91;90.46;100259.03;5113879;28;20174;-69
2022/04/01 10:40:51;;;;;;;8.07;7.13;;;;;;;0.81;90.93;100258.28;5113932;28;20209;-69
2022/04/01 10:43:26;;;;;;;7.13;6.83;;;;;;;0.84;92.32;100260.81;5113462;28;20174;-69
2022/04/01 10:46:11;;;;;;;6.53;6.43;;;;;;;0.86;92.66;100261.69;5114096;28;20178;-69
2022/04/01 10:51:41;;;;;;;6.63;6.47;;;;;;;0.93;93.37;100263.34;5113691;28;20170;-69
2022/04/01 10:54:12;;;;;;;6.63;6.30;;;;;;;0.96;93.72;100271.03;5113462;28;20213;-69
2022/04/01 10:56:39;;;;;;;6.37;6.23;;;;;;;0.96;93.75;100275.31;5114038;28;20281;-69
2022/04/01 10:59:15;;;;;;;7.33;7.03;;;;;;;0.90;94.03;100277.97;5113673;28;20237;-69
2022/04/01 11:02:03;;;;;;;6.63;6.47;;;;;;;1.03;94.50;100285.56;5113402;28;20165;-69
2022/04/01 11:04:32;;;;;;;6.47;6.13;;;;;;;0.91;94.91;100271.94;5113360;28;20210;-69
2022/04/01 11:07:01;;;;;;;7.17;6.87;;;;;;;0.80;95.54;100277.19;5113331;28;20176;-69
2022/04/01 11:09:34;;;;;;;7.83;7.50;;;;;;;0.83;95.34;100272.00;5113641;28;20176;-69
2022/04/01 11:12:15;;;;;;;6.30;6.20;;;;;;;0.85;95.99;100275.41;5113818;28;20196;-69
2022/04/01 11:14:58;;;;;;;7.67;7.17;;;;;;;0.83;95.59;100278.00;5113499;28;20255;-69
2022/04/01 11:17:34;;;;;;;7.27;6.67;;;;;;;0.82;96.39;100278.88;5113568;28;20185;-69
2022/04/01 11:20:08;;;;;;;8.83;6.60;;;;;;;0.83;96.70;100283.16;5113171;28;20221;-70
2022/04/01 11:22:52;;;;;;;6.60;6.40;;;;;;;0.97;96.92;100282.19;5113116;28;20221;-70
2022/04/01 11:25:22;;;;;;;7.97;7.30;;;;;;;0.87;97.03;100293.47;5113510;28;20212;-70
2022/04/01 11:28:01;;;;;;;7.60;7.03;;;;;;;0.85;96.29;100290.88;5113157;28;20181;-69
2022/04/01 11:30:54;;;;;;;7.30;7.10;;;;;;;0.97;96.29;100288.19;5113754;28;20228;-69
2022/04/01 11:33:22;;;;;;;7.53;7.20;;;;;;;0.93;97.42;100290.81;5081998;28;20234;-69
2022/04/01 11:35:51;;;;;;;6.70;6.30;;;;;;;0.87;97.58;100288.31;5113397;28;20585;-69
2022/04/01 11:38:24;;;;;;;7.13;6.70;;;;;;;0.92;97.61;100294.25;5113521;28;20193;-70
2022/04/01 11:40:56;;;;;;;8.43;7.67;;;;;;;0.92;98.59;100294.25;5115188;28;20173;-70
2022/04/01 11:43:25;;;;;;;6.63;6.47;;;;;;;0.97;98.84;100303.66;5117223;28;20166;-70
2022/04/01 11:45:59;;;;;;;7.00;6.80;;;;;;;0.92;98.98;100307.13;5117088;28;20246;-70
2022/04/01 11:48:30;;;;;;;6.97;6.77;;;;;;;0.87;99.23;100303.78;5116802;28;20184;-70
2022/04/01 11:51:04;;;;;;;7.50;7.10;;;;;;;0.72;98.98;100312.47;5116467;28;20190;-70
2022/04/01 11:53:35;;;;;;;7.33;7.03;;;;;;;0.60;100.00;100315.13;5116312;28;20204;-70
2022/04/01 11:56:05;;;;;;;6.93;6.70;;;;;;;0.60;100.00;100313.41;5116368;28;20244;-70
2022/04/01 11:58:36;;;;;;;6.87;6.50;;;;;;;0.84;100.00;100317.50;5116622;28;20192;-70
2022/04/01 12:01:03;;;;;;;8.07;7.50;;;;;;;0.89;100.00;100309.75;5116868;28;20183;-70
2022/04/01 12:03:31;;;;;;;7.40;7.03;;;;;;;0.82;100.00;100322.69;5116662;28;20196;-70
2022/04/01 12:08:41;;;;;;;7.57;7.07;;;;;;;0.71;100.00;100318.47;5116434;28;20202;-70
2022/04/01 12:08:46;;;;;;;7.43;7.10;;;;;;;0.71;100.00;100329.63;5116414;28;20219;-70